Time;durP1;ratioP1;P1;durP2;ratioP2;P2;SDS_P1;SDS_P2;PMS_P1;PMS_P2;Temp;Humidity;BMP_temperature;BMP_pressure;BME280_temperature;BME280_humidity;BME280_pressure;Samples;Min_cycle;Max_cycle;Signal;HPM_P1;HPM_P2
2023/05/16 00:01:36;;;;;;;10.07;4.35;;;;;;;9.81;94.07;100687.97;6028831;28;20081;-67
2023/05/16 00:04:32;;;;;;;10.25;4.65;;;;;;;9.82;94.53;100700.22;6013051;28;20038;-67
2023/05/16 00:07:27;;;;;;;9.30;4.07;;;;;;;9.74;93.42;100684.22;6031897;28;20416;-68
2023/05/16 00:10:22;;;;;;;6.57;3.33;;;;;;;9.77;93.15;100689.22;6037603;28;20084;-67
2023/05/16 00:13:24;;;;;;;5.85;3.55;;;;;;;9.72;93.05;100683.53;6028617;28;20030;-67
2023/05/16 00:16:20;;;;;;;6.38;3.60;;;;;;;9.78;93.74;100698.84;6024970;28;20026;-68
2023/05/16 00:19:15;;;;;;;6.95;3.40;;;;;;;9.72;93.52;100689.66;6028505;28;20026;-67
2023/05/16 00:22:11;;;;;;;7.43;3.70;;;;;;;9.66;93.93;100694.66;6027825;28;20381;-67
2023/05/16 00:25:08;;;;;;;7.27;3.33;;;;;;;9.64;94.62;100686.03;6028292;28;20026;-68
2023/05/16 00:28:03;;;;;;;7.80;3.40;;;;;;;9.75;94.42;100707.06;6033692;28;20269;-67
2023/05/16 00:30:58;;;;;;;6.23;3.00;;;;;;;9.76;94.54;100695.50;6030943;28;20030;-67
2023/05/16 00:33:54;;;;;;;7.90;3.77;;;;;;;9.80;94.48;100710.97;6026832;28;20037;-68
2023/05/16 00:36:49;;;;;;;6.93;3.50;;;;;;;9.79;94.63;100708.44;6023827;28;20034;-67
2023/05/16 00:39:44;;;;;;;6.90;3.37;;;;;;;9.82;94.93;100701.06;6028302;28;20348;-68
2023/05/16 00:42:40;;;;;;;10.23;3.63;;;;;;;9.80;95.10;100702.19;6028227;28;20318;-68
2023/05/16 00:45:35;;;;;;;8.70;3.40;;;;;;;9.74;94.74;100693.00;6026836;28;20026;-68
2023/05/16 00:48:31;;;;;;;6.57;3.90;;;;;;;9.76;94.69;100706.06;6023149;28;20097;-68
2023/05/16 00:51:26;;;;;;;13.02;3.90;;;;;;;9.74;95.05;100705.41;6023065;28;20273;-68
2023/05/16 00:54:22;;;;;;;7.47;3.33;;;;;;;9.70;94.59;100693.44;6027404;28;20122;-68
2023/05/16 00:57:18;;;;;;;6.53;3.13;;;;;;;9.64;94.56;100693.97;6026511;28;20041;-68
2023/05/16 01:00:16;;;;;;;6.93;3.80;;;;;;;9.67;94.60;100702.50;6026761;28;20050;-68
2023/05/16 01:03:12;;;;;;;7.22;3.30;;;;;;;9.76;95.07;100721.97;6026887;28;20478;-68
2023/05/16 01:06:07;;;;;;;6.50;3.05;;;;;;;9.70;95.50;100702.22;6031187;28;20103;-68
2023/05/16 01:09:03;;;;;;;8.97;2.90;;;;;;;9.69;95.67;100700.53;6047939;28;20050;-68
2023/05/16 01:12:08;;;;;;;8.55;3.40;;;;;;;9.72;95.78;100710.00;6027399;28;20262;-67
2023/05/16 01:15:11;;;;;;;7.35;3.13;;;;;;;9.74;96.12;100731.88;6024127;28;20034;-68
2023/05/16 01:18:13;;;;;;;5.10;2.80;;;;;;;9.78;96.20;100730.63;6029155;28;20029;-68
2023/05/16 01:21:17;;;;;;;9.25;3.70;;;;;;;9.79;95.84;100740.22;6049663;28;20117;-67
2023/05/16 01:24:15;;;;;;;7.50;3.22;;;;;;;9.79;95.78;100742.88;6050374;28;20045;-68
2023/05/16 01:27:10;;;;;;;4.90;2.75;;;;;;;9.76;95.83;100730.75;6049484;28;20125;-68
2023/05/16 01:30:17;;;;;;;5.88;3.00;;;;;;;9.69;95.91;100736.75;6029110;28;20095;-68
2023/05/16 01:33:12;;;;;;;8.15;3.38;;;;;;;9.70;96.42;100734.00;6026823;28;20031;-67
2023/05/16 01:36:43;;;;;;;6.10;3.03;;;;;;;9.73;96.75;100732.88;6026400;28;20089;-67
2023/05/16 01:39:44;;;;;;;7.28;3.05;;;;;;;9.64;96.27;100728.41;6019561;28;20474;-67
2023/05/16 01:42:43;;;;;;;8.48;3.22;;;;;;;9.73;96.38;100738.97;6018226;28;20034;-68
2023/05/16 01:45:44;;;;;;;5.50;2.75;;;;;;;9.66;96.76;100731.75;6023846;28;20030;-68
2023/05/16 01:48:52;;;;;;;7.47;3.20;;;;;;;9.74;96.92;100742.47;6015582;28;20038;-68
2023/05/16 01:51:53;;;;;;;6.30;3.25;;;;;;;9.71;97.04;100729.50;6025316;28;20117;-67
2023/05/16 01:54:52;;;;;;;7.05;3.17;;;;;;;9.61;96.59;100729.53;6019067;28;20026;-67
2023/05/16 01:57:48;;;;;;;6.90;2.47;;;;;;;9.69;96.94;100742.06;6018757;28;20038;-68
2023/05/16 02:00:44;;;;;;;6.80;2.70;;;;;;;9.61;96.85;100724.22;6025040;28;20042;-68
2023/05/16 02:03:39;;;;;;;6.65;3.28;;;;;;;9.61;97.13;100726.03;6021058;28;20030;-68
2023/05/16 02:06:34;;;;;;;6.23;3.00;;;;;;;9.65;96.97;100722.94;6023838;28;20117;-68
2023/05/16 02:09:30;;;;;;;5.70;2.60;;;;;;;9.67;97.59;100728.13;6037721;28;20453;-68
2023/05/16 02:12:25;;;;;;;6.35;3.38;;;;;;;9.61;97.54;100733.97;6026128;28;20278;-68
2023/05/16 02:15:20;;;;;;;8.17;3.03;;;;;;;9.71;98.12;100742.75;6022580;28;20038;-68
2023/05/16 02:18:17;;;;;;;6.97;3.30;;;;;;;9.57;97.73;100723.66;6031853;28;20022;-68
2023/05/16 02:21:12;;;;;;;9.13;2.85;;;;;;;9.59;97.17;100720.88;6030379;28;20046;-68
2023/05/16 02:24:08;;;;;;;8.43;2.67;;;;;;;9.74;97.05;100726.56;6007071;28;20422;-68
2023/05/16 02:27:03;;;;;;;5.33;2.83;;;;;;;9.76;96.26;100738.69;6018160;28;20034;-68
2023/05/16 02:29:58;;;;;;;7.27;2.40;;;;;;;9.76;96.59;100738.69;6016966;28;20038;-68
2023/05/16 02:32:54;;;;;;;5.55;2.65;;;;;;;9.65;96.97;100730.09;6024966;28;20277;-68
2023/05/16 02:35:49;;;;;;;10.63;2.80;;;;;;;9.79;97.58;100742.88;6024257;28;20125;-68
2023/05/16 02:38:44;;;;;;;5.07;2.87;;;;;;;9.70;97.23;100738.44;6010493;28;20030;-68
2023/05/16 02:41:40;;;;;;;9.82;2.78;;;;;;;9.77;97.38;100750.13;6025685;28;20026;-67
2023/05/16 02:44:35;;;;;;;4.53;2.53;;;;;;;9.67;97.12;100744.00;6023791;28;20409;-69
2023/05/16 02:47:30;;;;;;;7.90;3.13;;;;;;;9.74;97.75;100756.56;6026155;28;20038;-69
2023/05/16 02:50:26;;;;;;;7.20;2.70;;;;;;;9.81;98.07;100767.44;6025495;28;20025;-67
2023/05/16 02:53:21;;;;;;;6.40;3.07;;;;;;;9.78;98.25;100762.41;6024449;28;20030;-68
2023/05/16 02:56:17;;;;;;;11.23;3.00;;;;;;;9.72;99.00;100766.44;6024981;28;20049;-69
2023/05/16 02:59:12;;;;;;;11.02;2.92;;;;;;;9.69;98.66;100752.66;6032746;28;20030;-69
2023/05/16 03:02:07;;;;;;;6.72;2.40;;;;;;;9.76;98.21;100770.47;6029889;28;20041;-67
2023/05/16 03:05:04;;;;;;;5.47;2.60;;;;;;;9.77;98.13;100773.97;6027124;28;20038;-67
2023/05/16 03:07:59;;;;;;;8.13;2.65;;;;;;;9.75;98.38;100783.88;6029834;28;20676;-68
2023/05/16 03:10:54;;;;;;;5.77;2.63;;;;;;;9.65;99.57;100775.91;6025302;28;20030;-67
2023/05/16 03:13:49;;;;;;;14.47;3.23;;;;;;;9.62;99.90;100783.31;6021890;28;20030;-67
2023/05/16 03:16:45;;;;;;;7.43;2.30;;;;;;;9.52;100.00;100775.34;6006577;28;20569;-69
2023/05/16 03:19:40;;;;;;;6.03;3.00;;;;;;;9.56;100.00;100785.53;6026177;28;20380;-69
2023/05/16 03:22:35;;;;;;;10.97;2.20;;;;;;;9.54;100.00;100784.81;6049221;28;20041;-67
2023/05/16 03:25:31;;;;;;;4.82;2.38;;;;;;;9.45;100.00;100777.72;6029944;28;20046;-67
2023/05/16 03:28:26;;;;;;;7.57;2.83;;;;;;;9.32;100.00;100771.00;6024630;28;20108;-68
2023/05/16 03:31:21;;;;;;;7.67;2.97;;;;;;;9.21;100.00;100769.31;6025374;28;20027;-68
2023/05/16 03:34:17;;;;;;;7.28;3.17;;;;;;;9.18;100.00;100769.59;6023797;28;20034;-68
2023/05/16 03:37:14;;;;;;;7.40;2.35;;;;;;;9.23;100.00;100785.88;6016928;28;20042;-67
2023/05/16 03:40:11;;;;;;;11.95;3.55;;;;;;;9.16;100.00;100771.50;6020618;28;20030;-68
2023/05/16 03:43:06;;;;;;;5.43;2.42;;;;;;;9.28;100.00;100790.75;6020156;28;20081;-67
2023/05/16 03:46:01;;;;;;;12.27;3.03;;;;;;;9.26;100.00;100792.72;6027484;28;20458;-67
2023/05/16 03:48:57;;;;;;;6.07;3.57;;;;;;;9.26;100.00;100787.44;6020747;28;20027;-67
2023/05/16 03:51:52;;;;;;;12.25;3.03;;;;;;;9.32;100.00;100795.63;6027284;28;20045;-68
2023/05/16 03:54:48;;;;;;;6.43;2.93;;;;;;;9.27;100.00;100792.56;6028481;28;20038;-68
2023/05/16 03:57:43;;;;;;;7.23;3.47;;;;;;;9.31;100.00;100817.81;6027669;28;20458;-68
2023/05/16 04:00:39;;;;;;;8.75;3.60;;;;;;;9.21;100.00;100806.38;6029220;28;20450;-68
2023/05/16 04:03:34;;;;;;;10.75;3.92;;;;;;;9.02;100.00;100806.31;6028369;28;20041;-68
2023/05/16 04:06:30;;;;;;;6.43;2.90;;;;;;;9.04;100.00;100816.72;6024048;28;20061;-67
2023/05/16 04:09:26;;;;;;;6.90;2.72;;;;;;;9.02;100.00;100822.16;6041921;28;20484;-68
2023/05/16 04:12:21;;;;;;;6.37;2.60;;;;;;;9.02;100.00;100831.91;6029013;28;20038;-67
2023/05/16 04:15:17;;;;;;;6.43;2.47;;;;;;;8.92;100.00;100831.84;6028277;28;20088;-68
2023/05/16 04:18:12;;;;;;;5.73;1.83;;;;;;;8.98;100.00;100831.31;6021496;28;20046;-68
2023/05/16 04:21:09;;;;;;;7.80;2.05;;;;;;;8.95;100.00;100842.16;6028807;28;20101;-68
2023/05/16 04:24:05;;;;;;;6.20;1.70;;;;;;;8.98;100.00;100834.81;6027161;28;20132;-68
2023/05/16 04:27:00;;;;;;;4.82;1.52;;;;;;;9.08;100.00;100832.19;6027357;28;20030;-68
2023/05/16 04:29:56;;;;;;;6.07;1.60;;;;;;;9.16;100.00;100844.78;6028434;28;20026;-68
2023/05/16 04:32:51;;;;;;;6.10;1.73;;;;;;;9.15;100.00;100837.81;6027634;28;20076;-68
2023/05/16 04:35:47;;;;;;;6.30;1.90;;;;;;;9.21;100.00;100848.69;6027940;28;20261;-68
2023/05/16 04:38:42;;;;;;;5.38;1.45;;;;;;;9.22;100.00;100837.13;6015487;28;20037;-68
2023/05/16 04:41:38;;;;;;;6.25;1.70;;;;;;;9.31;100.00;100836.31;6027593;28;20387;-68
2023/05/16 04:44:33;;;;;;;3.58;1.50;;;;;;;9.48;100.00;100850.72;6027585;28;20033;-67
2023/05/16 04:47:28;;;;;;;5.53;1.50;;;;;;;9.35;100.00;100852.75;6024128;28;20046;-67
2023/05/16 04:50:24;;;;;;;7.17;1.40;;;;;;;9.48;100.00;100864.78;6026484;28;20026;-69
2023/05/16 04:53:19;;;;;;;6.37;1.90;;;;;;;9.58;100.00;100865.66;6027465;28;20414;-67
2023/05/16 04:56:14;;;;;;;6.20;1.73;;;;;;;9.44;99.52;100857.25;6025768;28;20069;-67
2023/05/16 04:59:10;;;;;;;5.07;1.50;;;;;;;9.36;99.47;100860.56;6026708;28;20041;-67
2023/05/16 05:02:06;;;;;;;5.43;1.60;;;;;;;9.24;100.00;100861.63;6028044;28;20381;-68
2023/05/16 05:05:02;;;;;;;5.75;1.60;;;;;;;9.22;100.00;100889.19;6025256;28;20065;-67
2023/05/16 05:07:57;;;;;;;6.05;1.80;;;;;;;9.02;100.00;100877.72;6025649;28;20033;-68
2023/05/16 05:10:54;;;;;;;5.53;1.50;;;;;;;8.98;100.00;100873.63;6029016;28;20037;-68
2023/05/16 05:13:50;;;;;;;10.30;1.77;;;;;;;9.10;100.00;100891.13;6015818;28;20069;-67
2023/05/16 05:16:45;;;;;;;4.72;1.55;;;;;;;9.18;100.00;100893.09;6020588;28;20035;-68
2023/05/16 05:19:40;;;;;;;7.87;1.43;;;;;;;9.23;100.00;100890.88;6050908;28;20042;-68
2023/05/16 05:22:36;;;;;;;4.75;1.80;;;;;;;9.35;100.00;100917.09;6050776;28;20028;-68
2023/05/16 05:25:32;;;;;;;4.87;1.50;;;;;;;9.25;100.00;100910.94;6042160;28;20030;-68
2023/05/16 05:28:27;;;;;;;4.10;1.35;;;;;;;9.19;99.69;100914.13;6028446;28;20046;-67
2023/05/16 05:31:23;;;;;;;6.40;2.13;;;;;;;9.11;98.51;100902.50;6017590;28;20040;-68
2023/05/16 05:34:18;;;;;;;6.20;1.90;;;;;;;9.17;97.87;100928.44;6028449;28;20033;-67
2023/05/16 05:37:13;;;;;;;11.97;1.80;;;;;;;9.09;97.67;100913.25;6040582;28;20036;-67
2023/05/16 05:40:09;;;;;;;7.63;1.70;;;;;;;9.19;96.73;100937.09;6025020;28;20022;-68
2023/05/16 05:43:05;;;;;;;5.93;1.65;;;;;;;9.25;95.66;100934.75;6027412;28;20034;-68
2023/05/16 05:46:00;;;;;;;7.95;1.90;;;;;;;9.20;95.09;100931.69;6037626;28;20026;-68
2023/05/16 05:48:55;;;;;;;6.40;1.37;;;;;;;9.19;94.77;100947.66;6010304;28;20037;-68
2023/05/16 05:51:51;;;;;;;12.90;2.03;;;;;;;9.11;95.08;100939.53;6024427;28;20045;-68
2023/05/16 05:54:47;;;;;;;9.10;1.50;;;;;;;9.11;94.19;100948.31;6016741;28;20281;-68
2023/05/16 05:57:42;;;;;;;10.38;1.83;;;;;;;9.07;94.07;100946.94;6024134;28;20030;-68
2023/05/16 06:00:37;;;;;;;10.00;1.70;;;;;;;9.08;94.09;100937.19;6025700;28;20034;-67
2023/05/16 06:03:33;;;;;;;8.25;1.70;;;;;;;9.15;93.12;100964.78;6023784;28;20044;-67
2023/05/16 06:06:28;;;;;;;9.97;1.50;;;;;;;9.29;93.56;100970.59;6027164;28;20037;-68
2023/05/16 06:09:23;;;;;;;9.10;1.95;;;;;;;9.25;94.30;100966.50;6023724;28;20508;-67
2023/05/16 06:12:19;;;;;;;9.20;2.20;;;;;;;9.25;95.60;100971.81;6024831;28;20030;-68
2023/05/16 06:15:14;;;;;;;8.73;2.25;;;;;;;9.27;95.38;100948.69;6025555;28;20049;-68
2023/05/16 06:18:09;;;;;;;10.00;2.00;;;;;;;9.32;93.60;100956.25;6036682;28;20037;-68
2023/05/16 06:21:05;;;;;;;9.27;1.90;;;;;;;9.39;91.48;100952.94;6027614;28;20284;-68
2023/05/16 06:24:01;;;;;;;7.85;2.38;;;;;;;9.52;91.83;100972.06;6021493;28;20037;-67
2023/05/16 06:26:56;;;;;;;6.97;1.60;;;;;;;9.54;90.35;100967.47;6030233;28;20030;-67
2023/05/16 06:29:52;;;;;;;10.70;1.73;;;;;;;9.68;85.53;100976.03;6021873;28;20022;-67
2023/05/16 06:32:47;;;;;;;6.97;1.90;;;;;;;9.91;85.28;100985.47;6024468;28;20026;-68
2023/05/16 06:35:42;;;;;;;9.50;1.60;;;;;;;9.87;84.21;100984.03;6015508;28;20058;-67
2023/05/16 06:38:38;;;;;;;11.03;2.40;;;;;;;9.94;83.20;100996.63;6033866;28;20513;-68
2023/05/16 06:41:33;;;;;;;8.17;1.80;;;;;;;9.98;82.06;100989.22;6030172;28;20037;-67
2023/05/16 06:44:28;;;;;;;12.43;1.47;;;;;;;10.05;80.55;101003.63;6034749;28;20043;-67
2023/05/16 06:47:24;;;;;;;10.73;1.50;;;;;;;9.85;78.82;100999.22;6025030;28;20428;-67
2023/05/16 06:50:19;;;;;;;10.98;1.42;;;;;;;9.85;78.82;101001.88;6032552;28;20026;-67
2023/05/16 06:53:14;;;;;;;8.25;1.23;;;;;;;10.06;78.37;101015.88;6028752;28;20465;-67
2023/05/16 06:56:10;;;;;;;9.17;1.33;;;;;;;10.11;78.06;101011.00;6022643;28;20037;-67
2023/05/16 06:59:05;;;;;;;8.93;1.40;;;;;;;10.19;75.77;101016.53;6026403;28;20105;-68
2023/05/16 07:02:00;;;;;;;10.73;1.30;;;;;;;10.10;75.90;101006.72;6034569;28;20042;-67
2023/05/16 07:04:56;;;;;;;7.10;1.40;;;;;;;10.15;76.71;101017.75;6030753;28;20049;-67
2023/05/16 07:07:51;;;;;;;8.87;1.10;;;;;;;10.13;76.29;101023.22;6022858;28;20490;-68
2023/05/16 07:10:46;;;;;;;7.93;1.50;;;;;;;10.28;76.19;101025.47;6023588;28;20038;-67
2023/05/16 07:13:41;;;;;;;6.30;1.43;;;;;;;10.32;75.67;101021.56;6025064;28;20040;-67
2023/05/16 07:16:37;;;;;;;5.53;0.90;;;;;;;10.55;77.02;101029.13;6016558;28;20367;-67
2023/05/16 07:19:32;;;;;;;7.45;1.55;;;;;;;10.70;77.57;101030.41;6027269;28;20261;-68
2023/05/16 07:22:28;;;;;;;6.37;1.50;;;;;;;10.82;76.47;101035.59;6028007;28;20045;-67
2023/05/16 07:25:23;;;;;;;11.47;2.00;;;;;;;10.69;76.46;101014.63;6030502;28;20027;-67
2023/05/16 07:28:19;;;;;;;8.57;1.70;;;;;;;10.69;74.61;101028.72;6030288;28;20026;-68
2023/05/16 07:31:15;;;;;;;8.13;1.30;;;;;;;10.50;73.68;101019.91;6035743;28;20030;-67
2023/05/16 07:34:10;;;;;;;9.80;2.03;;;;;;;10.31;73.02;101030.50;6022410;28;20741;-68
2023/05/16 07:37:11;;;;;;;10.07;1.47;;;;;;;10.39;72.87;101030.63;6028268;28;20077;-68
2023/05/16 07:40:07;;;;;;;;;;;;;;;10.40;71.97;101040.28;6033185;28;20030;-67
2023/05/16 07:43:02;;;;;;;6.55;1.25;;;;;;;10.86;70.89;101042.28;6024898;28;19906;-67
2023/05/16 07:45:57;;;;;;;5.07;1.40;;;;;;;11.25;70.37;101039.44;6029720;28;20026;-67
2023/05/16 07:48:53;;;;;;;6.60;1.23;;;;;;;11.49;67.79;101033.69;6032560;28;20436;-68
2023/05/16 07:51:48;;;;;;;6.50;1.25;;;;;;;11.48;66.57;101039.97;6028500;28;20030;-67
2023/05/16 07:54:45;;;;;;;4.53;1.37;;;;;;;11.25;67.00;101044.75;6042241;28;20034;-67
2023/05/16 07:57:42;;;;;;;8.50;1.70;;;;;;;11.21;66.97;101054.00;6027526;28;20041;-68
2023/05/16 08:00:37;;;;;;;12.88;3.97;;;;;;;11.49;67.29;101041.66;6027670;28;20429;-68
2023/05/16 08:03:34;;;;;;;7.77;1.37;;;;;;;12.08;66.14;101045.78;6029264;28;20042;-67
2023/05/16 08:06:30;;;;;;;7.78;1.55;;;;;;;11.93;64.54;101061.34;6050513;28;20018;-67
2023/05/16 08:09:25;;;;;;;6.68;1.05;;;;;;;11.49;64.85;101065.53;6025236;28;20088;-67
2023/05/16 08:12:20;;;;;;;6.30;1.70;;;;;;;11.29;64.39;101045.31;6030820;28;20463;-67
2023/05/16 08:15:15;;;;;;;5.87;1.63;;;;;;;11.58;64.14;101067.31;6027266;28;20034;-67
2023/05/16 08:18:13;;;;;;;5.77;1.17;;;;;;;11.80;62.93;101061.69;6028587;28;20052;-67
2023/05/16 08:21:08;;;;;;;7.93;1.10;;;;;;;11.70;62.79;101046.78;6024830;28;20019;-67
2023/05/16 08:24:04;;;;;;;15.35;1.35;;;;;;;11.68;61.51;101049.56;6019176;28;20041;-67
2023/05/16 08:26:59;;;;;;;7.40;1.15;;;;;;;12.29;60.28;101051.69;6024801;28;20026;-68
2023/05/16 08:29:55;;;;;;;5.75;1.20;;;;;;;12.42;59.85;101053.00;6028027;28;20466;-67
2023/05/16 08:32:50;;;;;;;5.43;1.00;;;;;;;12.16;58.15;101061.81;6027760;28;20053;-67
2023/05/16 08:35:47;;;;;;;6.13;1.13;;;;;;;12.50;58.44;101053.09;6025613;28;20273;-68
2023/05/16 08:38:42;;;;;;;3.58;0.98;;;;;;;12.67;58.75;101062.06;6029279;28;20026;-67
2023/05/16 08:41:38;;;;;;;5.40;0.93;;;;;;;13.17;54.84;101072.22;6018902;28;20421;-68
2023/05/16 08:44:33;;;;;;;10.07;1.30;;;;;;;13.06;54.71;101066.13;6028375;28;20035;-68
2023/05/16 08:47:30;;;;;;;3.58;1.30;;;;;;;13.26;55.10;101068.66;6037431;28;20018;-68
2023/05/16 08:50:30;;;;;;;9.35;1.58;;;;;;;12.88;54.94;101057.28;6029225;28;20025;-68
2023/05/16 08:53:31;;;;;;;6.85;1.50;;;;;;;12.94;55.05;101074.47;6033340;28;20041;-68
2023/05/16 08:56:27;;;;;;;9.27;1.23;;;;;;;13.41;53.86;101056.41;6019527;28;20031;-68
2023/05/16 08:59:22;;;;;;;5.50;1.13;;;;;;;13.44;53.73;101056.97;6037105;28;20084;-68
2023/05/16 09:02:17;;;;;;;5.67;0.90;;;;;;;12.81;53.38;101068.69;6043904;28;20030;-67
2023/05/16 09:05:14;;;;;;;3.57;0.87;;;;;;;13.40;53.64;101062.75;6017000;28;20029;-68
2023/05/16 09:08:10;;;;;;;4.80;0.88;;;;;;;13.46;53.81;101048.78;6020047;28;20057;-68
2023/05/16 09:11:05;;;;;;;6.18;0.98;;;;;;;13.78;52.36;101051.66;6032044;28;20025;-68
2023/05/16 09:14:00;;;;;;;4.80;1.00;;;;;;;13.40;50.39;101033.47;6030674;28;20045;-68
2023/05/16 09:17:03;;;;;;;7.03;1.27;;;;;;;13.37;51.26;101060.41;6027257;28;20385;-68
2023/05/16 09:19:59;;;;;;;3.58;0.90;;;;;;;13.76;50.41;101056.31;6037689;28;20034;-68
2023/05/16 09:22:56;;;;;;;5.03;1.45;;;;;;;13.29;52.08;101047.84;6038521;28;20364;-68
2023/05/16 09:25:52;;;;;;;6.55;0.80;;;;;;;12.87;53.24;101073.41;6039806;28;20030;-69
2023/05/16 09:28:47;;;;;;;4.15;1.55;;;;;;;13.28;52.26;101061.31;6030506;28;20488;-68
2023/05/16 09:31:42;;;;;;;7.50;0.93;;;;;;;13.00;51.45;101053.41;6025662;28;20033;-67
2023/05/16 09:34:48;;;;;;;6.27;1.00;;;;;;;13.18;51.53;101044.59;6029900;28;20039;-68
2023/05/16 09:37:48;;;;;;;2.50;0.75;;;;;;;13.35;49.66;101057.88;6027764;28;20057;-68
2023/05/16 09:40:43;;;;;;;9.30;1.45;;;;;;;13.80;49.79;101044.34;6021830;28;20430;-68
2023/05/16 09:43:40;;;;;;;3.80;0.90;;;;;;;13.97;49.04;101037.28;6043741;28;20041;-68
2023/05/16 09:46:36;;;;;;;5.70;0.85;;;;;;;14.41;49.19;101029.94;6046831;28;20104;-68
2023/05/16 09:49:32;;;;;;;3.08;0.95;;;;;;;14.16;47.39;101056.50;6046380;28;20033;-68
2023/05/16 09:52:27;;;;;;;6.72;0.80;;;;;;;14.15;47.63;101052.19;6023205;28;20036;-68
2023/05/16 09:55:23;;;;;;;6.30;0.90;;;;;;;14.14;49.28;101052.34;6011791;28;20493;-68
2023/05/16 09:58:18;;;;;;;3.47;0.70;;;;;;;14.53;47.66;101045.50;6018716;28;20377;-68
2023/05/16 10:01:13;;;;;;;3.03;0.70;;;;;;;14.69;45.91;101050.03;6042675;28;20311;-68
2023/05/16 10:04:12;;;;;;;3.50;0.80;;;;;;;14.82;46.14;101037.88;6037649;28;20030;-68
2023/05/16 10:07:08;;;;;;;3.95;1.00;;;;;;;15.51;46.25;101047.25;6026117;28;20034;-68
2023/05/16 10:10:07;;;;;;;5.90;1.00;;;;;;;15.17;44.98;101058.06;6017858;28;20029;-68
2023/05/16 10:13:04;;;;;;;4.05;0.82;;;;;;;13.96;48.82;101054.25;6031193;28;20026;-68
2023/05/16 10:16:06;;;;;;;3.38;0.90;;;;;;;14.03;50.34;101053.47;6026004;28;20098;-68
2023/05/16 10:19:02;;;;;;;5.55;0.90;;;;;;;14.18;48.35;101065.22;6015895;28;20060;-68
2023/05/16 10:21:59;;;;;;;4.13;0.90;;;;;;;13.89;48.71;101046.06;6044127;28;20034;-68
2023/05/16 10:25:07;;;;;;;5.05;0.80;;;;;;;14.05;48.44;101039.97;6033954;28;20018;-68
2023/05/16 10:28:03;;;;;;;4.80;1.10;;;;;;;14.56;45.59;101039.00;6027314;28;20429;-68
2023/05/16 10:30:58;;;;;;;3.63;1.00;;;;;;;14.81;44.71;101038.03;6035133;28;20108;-68
2023/05/16 10:33:55;;;;;;;4.78;0.60;;;;;;;15.03;43.59;101050.72;6022031;28;20034;-68
2023/05/16 10:36:52;;;;;;;4.28;0.90;;;;;;;15.04;43.52;101052.41;6038984;28;20050;-68
2023/05/16 10:39:47;;;;;;;4.80;1.00;;;;;;;14.62;43.38;101046.34;6028425;28;20018;-68
2023/05/16 10:42:53;;;;;;;4.57;0.65;;;;;;;14.89;43.17;101035.38;6038258;28;20070;-68
2023/05/16 10:45:53;;;;;;;6.05;1.00;;;;;;;14.71;43.19;101042.69;6023235;28;20589;-68
2023/05/16 10:48:49;;;;;;;4.47;0.77;;;;;;;14.52;45.49;101034.97;6025674;28;20625;-67
2023/05/16 10:51:44;;;;;;;4.07;0.70;;;;;;;15.05;44.36;101040.72;6042437;28;20022;-67
2023/05/16 10:54:42;;;;;;;4.50;0.67;;;;;;;15.18;43.44;101046.41;6027648;28;20026;-68
2023/05/16 10:57:37;;;;;;;3.10;0.90;;;;;;;14.85;44.11;101031.34;6017222;28;20033;-68
2023/05/16 11:00:32;;;;;;;3.90;0.70;;;;;;;15.11;38.31;101031.22;6019738;28;20477;-68
2023/05/16 11:03:28;;;;;;;2.73;0.90;;;;;;;15.59;40.80;101052.56;6024777;28;20022;-68
2023/05/16 11:06:39;;;;;;;6.40;0.80;;;;;;;15.51;41.81;101054.41;6023457;28;20022;-68
2023/05/16 11:09:34;;;;;;;3.33;1.08;;;;;;;15.81;42.72;101038.47;6033958;28;20131;-69
2023/05/16 11:12:43;;;;;;;1.97;0.60;;;;;;;16.24;40.58;101050.50;6030106;28;20026;-69
2023/05/16 11:15:39;;;;;;;3.30;0.70;;;;;;;15.66;43.01;101055.38;6023685;28;20022;-68
2023/05/16 11:18:48;;;;;;;3.97;1.00;;;;;;;15.09;42.03;101031.38;6024591;28;20053;-68
2023/05/16 11:22:18;;;;;;;3.70;0.80;;;;;;;14.75;43.47;101054.72;6040356;28;20061;-68
2023/05/16 11:25:13;;;;;;;3.38;0.55;;;;;;;14.69;44.66;101034.84;6035835;28;20401;-68
2023/05/16 11:28:09;;;;;;;7.17;1.00;;;;;;;15.22;45.00;101062.94;6036743;28;20110;-68
2023/05/16 11:31:05;;;;;;;6.10;0.98;;;;;;;15.42;44.63;101065.09;6036384;28;20037;-68
2023/05/16 11:34:00;;;;;;;4.13;0.70;;;;;;;15.70;42.87;101035.34;6026634;28;20046;-68
2023/05/16 11:36:56;;;;;;;5.95;0.77;;;;;;;16.01;38.91;101057.63;6027838;28;20022;-68
2023/05/16 11:39:51;;;;;;;2.42;0.50;;;;;;;15.67;39.45;101043.69;6040941;28;20104;-68
2023/05/16 11:42:47;;;;;;;4.50;0.80;;;;;;;15.42;40.79;101059.75;6039589;28;20022;-68
2023/05/16 11:45:42;;;;;;;2.55;0.70;;;;;;;15.06;40.59;101058.41;6029315;28;20034;-68
2023/05/16 11:48:37;;;;;;;5.70;0.77;;;;;;;15.89;39.90;101054.50;6027823;28;20035;-67
2023/05/16 11:51:33;;;;;;;2.57;0.60;;;;;;;16.40;37.00;101061.13;6032993;28;20473;-67
2023/05/16 11:54:29;;;;;;;3.50;0.60;;;;;;;16.32;38.09;101053.16;6027697;28;20029;-68
2023/05/16 11:57:25;;;;;;;5.00;1.58;;;;;;;16.45;38.59;101056.09;6037577;28;20061;-68
2023/05/16 12:00:23;;;;;;;3.20;0.65;;;;;;;16.61;39.68;101058.72;6034417;28;20084;-68
2023/05/16 12:03:19;;;;;;;2.47;0.60;;;;;;;16.84;36.74;101055.22;6033081;28;20038;-68
2023/05/16 12:06:14;;;;;;;3.33;0.88;;;;;;;17.39;38.03;101053.09;6042678;28;20034;-68
2023/05/16 12:09:14;;;;;;;4.60;0.80;;;;;;;17.01;40.15;101048.75;6033829;28;20031;-68
2023/05/16 12:12:09;;;;;;;6.72;0.70;;;;;;;15.93;40.83;101046.94;6032845;28;20010;-68
2023/05/16 12:15:06;;;;;;;3.28;1.00;;;;;;;15.05;42.66;101062.09;6030309;28;20061;-68
2023/05/16 12:18:02;;;;;;;3.38;0.90;;;;;;;14.54;44.24;101057.81;6029507;28;20105;-68
2023/05/16 12:20:57;;;;;;;7.50;1.15;;;;;;;14.03;46.10;101066.78;6031157;28;20494;-68
2023/05/16 12:23:57;;;;;;;2.53;0.60;;;;;;;14.13;46.27;101080.81;6030862;28;20034;-68
2023/05/16 12:26:52;;;;;;;10.60;2.30;;;;;;;14.13;47.10;101070.16;6033606;28;20495;-68
2023/05/16 12:29:49;;;;;;;2.33;0.70;;;;;;;14.05;46.33;101070.13;6027723;28;20031;-68
2023/05/16 12:32:44;;;;;;;2.28;1.00;;;;;;;13.93;43.07;101068.75;6025210;28;20486;-68
2023/05/16 12:35:40;;;;;;;4.60;0.70;;;;;;;14.26;43.53;101059.91;6030094;28;20053;-68
2023/05/16 12:38:36;;;;;;;3.10;0.70;;;;;;;14.32;41.50;101074.47;6033531;28;20457;-68
2023/05/16 12:41:31;;;;;;;4.93;0.60;;;;;;;14.22;42.57;101069.22;6029570;28;20030;-68
2023/05/16 12:44:29;;;;;;;1.97;0.70;;;;;;;14.62;42.60;101062.38;6028774;28;20034;-68
2023/05/16 12:47:34;;;;;;;8.55;0.85;;;;;;;14.94;42.38;101062.41;6035170;28;20638;-68
2023/05/16 12:50:29;;;;;;;3.85;0.70;;;;;;;14.78;42.32;101075.75;6027038;28;20097;-68
2023/05/16 12:53:25;;;;;;;2.30;0.50;;;;;;;14.46;42.83;101086.34;6021320;28;20041;-68
2023/05/16 12:56:21;;;;;;;3.30;0.75;;;;;;;14.14;43.67;101071.00;6032368;28;20038;-68
2023/05/16 12:59:18;;;;;;;7.75;0.70;;;;;;;14.44;44.70;101069.66;6023141;28;20030;-68
2023/05/16 13:02:13;;;;;;;1.88;0.55;;;;;;;14.64;43.66;101079.06;6031018;28;20038;-68
2023/05/16 13:05:09;;;;;;;2.53;0.57;;;;;;;14.61;40.94;101080.22;6041534;28;20118;-68
2023/05/16 13:08:04;;;;;;;3.85;0.90;;;;;;;14.90;41.70;101069.06;6039217;28;20034;-68
2023/05/16 13:11:00;;;;;;;3.60;0.80;;;;;;;15.46;41.61;101079.78;6027838;28;20062;-68
2023/05/16 13:13:56;;;;;;;5.50;1.33;;;;;;;15.10;42.90;101085.63;6029687;28;20473;-68
2023/05/16 13:16:51;;;;;;;6.15;0.98;;;;;;;14.53;45.01;101084.69;6027144;28;20041;-67
2023/05/16 13:19:47;;;;;;;4.73;0.83;;;;;;;14.36;46.39;101094.47;6023404;28;20034;-68
2023/05/16 13:22:43;;;;;;;5.90;0.90;;;;;;;14.36;47.31;101086.47;6027606;28;20053;-68
2023/05/16 13:25:39;;;;;;;5.28;1.00;;;;;;;14.83;45.87;101092.13;6026301;28;20034;-68
2023/05/16 13:28:35;;;;;;;4.28;0.88;;;;;;;15.13;43.08;101086.16;6029749;28;20121;-68
2023/05/16 13:31:30;;;;;;;3.25;1.00;;;;;;;15.58;43.51;101084.81;6029048;28;20057;-68
2023/05/16 13:34:25;;;;;;;5.13;0.90;;;;;;;15.71;43.90;101085.13;6027124;28;20466;-68
2023/05/16 13:37:23;;;;;;;6.60;0.88;;;;;;;16.04;42.47;101092.06;6028972;28;20029;-68
2023/05/16 13:40:18;;;;;;;5.28;0.98;;;;;;;16.26;40.90;101085.97;6028553;28;20377;-68
2023/05/16 13:43:14;;;;;;;3.63;0.80;;;;;;;16.61;39.41;101098.88;6028442;28;20034;-68